KCFV - Coffeyville, Kansas, USA
Distance from station: ENE 93mi, 150km
Updated: Thu, 27-Feb-2020 4:52am PST
Overcast
Overcast
 Wind from SW
Wind: SW 8 mph , 13 km/h
Temperature: 32°F , 0°C
Wind Chill: 25°F , -4°C
Dew Point: 19°F , -7°C
Humidity: 60%
Barometer: 30.26 inHg , 1024.7 hPa
Clouds: Overcast
Visibility: 10 miles , 16 km
Cloud details: Overcast 9000 ft
2020/02/27 12:52 KCFV 271252Z AUTO 22007KT 10SM OVC090 00/M07 A3026 RMK AO2 SLP252 T00001067
KIDP - Independence, Kansas, USA
Distance from station: NE 86mi, 138km
Updated: Thu, 27-Feb-2020 5:15am PST
Overcast
Overcast
 Wind from SSW
Wind: SSW 10 mph , 17 km/h
Temperature: 30°F , -1°C
Wind Chill: 21°F , -6°C
Dew Point: 21°F , -6°C
Humidity: 69%
Barometer: 30.25 inHg , 1024.4 hPa
Clouds: Overcast
Visibility: 10 miles , 16 km
Cloud details: Overcast 8500 ft
2020/02/27 13:15 KIDP 271315Z AUTO 21009KT 10SM OVC085 M01/M06 A3025 RMK AO2 T10111056
 
KIAB - Mcconnell Afb, Kansas, USA
Distance from station: N 84mi, 135km
Updated: Thu, 27-Feb-2020 3:56am PST
NOT Current
Clear
Clear
 Wind from SW
Wind: SW 14 mph , 22 km/h
Temperature: 30°F , -1°C
Wind Chill: 19°F , -7°C
Dew Point: 18°F , -8°C
Humidity: 59%
Barometer: 30.18 inHg , 1022 hPa
Clouds: Clear
Visibility: 10 miles , 16 km
2020/02/27 11:56 KIAB 271156Z AUTO 23012KT 10SM CLR M01/M08 A3018 RMK AO2 SLP234 T10131077 11008 21051 57013
KICT - Wichita, Kansas, USA
Distance from station: NNW 88mi, 142km
Updated: Thu, 27-Feb-2020 4:53am PST
Few Clouds
Few Clouds
 Wind from SSW
Wind: SSW 12 mph , 19 km/h
Temperature: 28°F , -2°C
Wind Chill: 18°F , -8°C
Dew Point: 19°F , -7°C
Humidity: 69%
Barometer: 30.17 inHg , 1021.7 hPa
Clouds: Few Clouds
Visibility: 10 miles , 16 km
Cloud details: Few Clouds 8000 ft
2020/02/27 12:53 KICT 271253Z 20010KT 10SM FEW080 M02/M07 A3017 RMK AO2 SLP230 T10221067
 
KAAO - Wichita/Jabara, Kansas, USA
Distance from station: N 93mi, 149km
Updated: Thu, 27-Feb-2020 4:54am PST
Overcast
Overcast
 Wind from SSW
Wind: SSW 15 mph , 24 km/h
Temperature: 28°F , -2°C
Wind Chill: 16°F , -9°C
Dew Point: 19°F , -7°C
Humidity: 69%
Barometer: 30.17 inHg , 1021.7 hPa
Clouds: Overcast
Visibility: 10 miles , 16 km
Cloud details: Overcast 9500 ft
2020/02/27 12:54 KAAO 271254Z AUTO 21013KT 10SM OVC095 M02/M07 A3017 RMK AO2 SLP232 T10171072
KWLD - Winfield/Arkansa, Kansas, USA
Distance from station: N 52mi, 84km
Updated: Thu, 27-Feb-2020 4:54am PST
Clear
Clear
 Wind from SSW
Wind: SSW 9 mph , 15 km/h
Temperature: 28°F , -2°C
Wind Chill: 19°F , -7°C
Dew Point: 19°F , -7°C
Humidity: 69%
Barometer: 30.22 inHg , 1023.4 hPa
Clouds: Clear
Visibility: 10 miles , 16 km
2020/02/27 12:54 KWLD 271254Z AUTO 20008KT 10SM CLR M02/M07 A3022 RMK AO2 SLP246 T10171072
 
KAVK - Alva, Oklahoma, USA
Distance from station: WNW 94mi, 152km
Updated: Thu, 27-Feb-2020 5:15am PST
Clear
Clear
 Wind from SW
Wind: SW 9 mph , 15 km/h
Temperature: 27°F , -3°C
Wind Chill: 18°F , -8°C
Dew Point: 21°F , -6°C
Humidity: 80%
Barometer: 30.20 inHg , 1022.7 hPa
Clouds: Clear
Visibility: 10 miles , 16 km
2020/02/27 13:15 KAVK 271315Z AUTO 23008KT 10SM CLR M03/M06 A3020 RMK AO2 PWINO TSNO
KBVO - Bartlesville, Oklahoma, USA
Distance from station: ENE 61mi, 98km
Updated: Thu, 27-Feb-2020 4:53am PST
Mostly Cloudy
Mostly Cloudy
 Wind from varies
Wind: varies 3 mph , 6 km/h
Temperature: 28°F , -2°C
Dew Point: 19°F , -7°C
Humidity: 69%
Barometer: 30.28 inHg , 1025.4 hPa
Clouds: Mostly Cloudy
Visibility: 10 miles , 16 km
Cloud details: Mostly Cloudy 9000 ft
2020/02/27 12:53 KBVO 271253Z AUTO VRB03KT 10SM BKN090 M02/M07 A3028 RMK AO2 SLP257 T10171072
 
KBKN - Blackwell, Oklahoma, USA
Distance from station: NW 29mi, 47km
Updated: Thu, 27-Feb-2020 5:15am PST

 Wind from calm
Wind: Calm
Temperature: 27°F , -3°C
Dew Point: 25°F , -4°C
Humidity: 93%
Barometer: 30.24 inHg , 1024 hPa
Visibility: 10 miles , 16 km
2020/02/27 13:15 KBKN 271315Z AUTO 00000KT 10SM M03/M04 A3024 RMK AO2
KGCM - Claremore, Oklahoma, USA
Distance from station: E 86mi, 138km
Updated: Thu, 27-Feb-2020 5:15am PST
Partly Cloudy
Partly Cloudy
 Wind from SSW
Wind: SSW 5 mph , 7 km/h
Temperature: 25°F , -4°C
Wind Chill: 19°F , -7°C
Dew Point: 16°F , -9°C
Humidity: 69%
Barometer: 30.31 inHg , 1026.4 hPa
Clouds: Partly Cloudy
Visibility: 10 miles , 16 km
Cloud details: Partly Cloudy 9000 ft
2020/02/27 13:15 KGCM 271315Z AUTO 20004KT 10SM SCT090 M04/M09 A3031 RMK AO2
 
KCQB - Chandler, Oklahoma, USA
Distance from station: SSE 50mi, 80km
Updated: Thu, 27-Feb-2020 5:15am PST
Clear
Clear
 Wind from SSW
Wind: SSW 6 mph , 9 km/h
Temperature: 23°F , -5°C
Wind Chill: 16°F , -9°C
Dew Point: 18°F , -8°C
Humidity: 80%
Barometer: 30.30 inHg , 1026.1 hPa
Clouds: Clear
Visibility: 10 miles , 16 km
2020/02/27 13:15 KCQB 271315Z AUTO 20005KT 10SM CLR M05/M08 A3030 RMK AO2 T10501077
KCUH - Cushing, Oklahoma, USA
Distance from station: SSE 35mi, 57km
Updated: Thu, 27-Feb-2020 5:15am PST
Clear
Clear
 Wind from SSW
Wind: SSW 7 mph , 11 km/h
Temperature: 25°F , -4°C
Wind Chill: 17°F , -8°C
Dew Point: 19°F , -7°C
Humidity: 80%
Barometer: 30.28 inHg , 1025.4 hPa
Clouds: Clear
Visibility: 10 miles , 16 km
2020/02/27 13:15 KCUH 271315Z AUTO 20006KT 10SM CLR M04/M07 A3028 RMK AO2 T10451073
 
KRQO - El Reno Muni, Oklahoma, USA
Distance from station: SW 85mi, 137km
Updated: Thu, 27-Feb-2020 4:50am PST
Clear
Clear
 Wind from SSW
Wind: SSW 14 mph , 22 km/h
Temperature: 27°F , -3°C
Wind Chill: 16°F , -9°C
Dew Point: 19°F , -7°C
Humidity: 74%
Barometer: 30.28 inHg , 1025.4 hPa
Clouds: Clear
Visibility: 10 miles , 16 km
2020/02/27 12:50 KRQO 271250Z AUTO 20012KT 10SM CLR M03/M07 A3028 RMK AO2 TSNO T10341068
KEND - Enid/Vance Afb, Oklahoma, USA
Distance from station: W 50mi, 81km
Updated: Thu, 27-Feb-2020 4:46am PST
Clear
Clear
 Wind from calm
Wind: Calm
Temperature: 25°F , -4°C
Dew Point: 25°F , -4°C
Humidity: 100%
Barometer: 30.23 inHg , 1023.7 hPa
Clouds: Clear
Visibility: 10 miles , 16 km
2020/02/27 12:46 KEND 271246Z AUTO 00000KT 10SM CLR M04/M04 A3023 RMK AO2 SLP253
 
KWDG - Enid/Woodring, Oklahoma, USA
Distance from station: W 42mi, 67km
Updated: Thu, 27-Feb-2020 4:46am PST
Clear
Clear
 Wind from SSE
Wind: SSE 8 mph , 13 km/h
Temperature: 23°F , -5°C
Wind Chill: 14°F , -10°C
Dew Point: 19°F , -7°C
Humidity: 86%
Barometer: 30.24 inHg , 1024 hPa
Clouds: Clear
Visibility: 10 miles , 16 km
2020/02/27 12:46 KWDG 271246Z 16007KT 10SM SKC M05/M07 A3024
KGOK - Guthrie, Oklahoma, USA
Distance from station: SSW 44mi, 71km
Updated: Thu, 27-Feb-2020 4:53am PST
Clear
Clear
 Wind from SSW
Wind: SSW 7 mph , 11 km/h
Temperature: 27°F , -3°C
Wind Chill: 19°F , -7°C
Dew Point: 19°F , -7°C
Humidity: 74%
Barometer: 30.28 inHg , 1025.4 hPa
Clouds: Clear
Visibility: 10 miles , 16 km
2020/02/27 12:53 KGOK 271253Z AUTO 20006KT 10SM CLR M03/M07 A3028 RMK AO2 SLP263 T10331072
 
KOUN - Norman/Westheime, Oklahoma, USA
Distance from station: SSW 84mi, 136km
Updated: Thu, 27-Feb-2020 5:15am PST
Clear
Clear
 Wind from SSW
Wind: SSW 6 mph , 9 km/h
Temperature: 25°F , -4°C
Wind Chill: 18°F , -8°C
Dew Point: 18°F , -8°C
Humidity: 74%
Barometer: 30.28 inHg , 1025.4 hPa
Clouds: Clear
Visibility: 10 miles , 16 km
2020/02/27 13:15 KOUN 271315Z AUTO 20005KT 10SM CLR M04/M08 A3028 RMK AO2 T10401082
KOKC - Oklahoma City, Oklahoma, USA
Distance from station: SSW 78mi, 126km
Updated: Thu, 27-Feb-2020 4:52am PST
Clear
Clear
 Wind from S
Wind: S 6 mph , 9 km/h
Temperature: 21°F , -6°C
Wind Chill: 13°F , -11°C
Dew Point: 16°F , -9°C
Humidity: 80%
Barometer: 30.28 inHg , 1025.4 hPa
Clouds: Clear
Visibility: 10 miles , 16 km
2020/02/27 12:52 KOKC 271252Z 19005KT 10SM CLR M06/M09 A3028 RMK AO2 SLP265 T10561089
 
KPWA - Okla City/Wiley, Oklahoma, USA
Distance from station: SSW 70mi, 113km
Updated: Thu, 27-Feb-2020 4:53am PST
Clear
Clear
 Wind from SSW
Wind: SSW 14 mph , 22 km/h
Temperature: 28°F , -2°C
Wind Chill: 17°F , -8°C
Dew Point: 19°F , -7°C
Humidity: 69%
Barometer: 30.28 inHg , 1025.4 hPa
Clouds: Clear
Visibility: 10 miles , 16 km
2020/02/27 12:53 KPWA 271253Z 20012KT 10SM CLR M02/M07 A3028 RMK AO2 SLP262 T10171067 $
KRCE - Okla City/Page, Oklahoma, USA
Distance from station: SW 78mi, 126km
Updated: Thu, 27-Feb-2020 5:15am PST

 Wind from SSW
Wind: SSW 9 mph , 15 km/h
Temperature: 27°F , -3°C
Wind Chill: 18°F , -8°C
Dew Point: 19°F , -7°C
Humidity: 74%
Barometer: 30.27 inHg , 1025.1 hPa
Visibility: 10 miles , 16 km
2020/02/27 13:15 KRCE 271315Z AUTO 21008KT 10SM M03/M07 A3027 RMK AO2
 
KOKM - Okmulgee, Oklahoma, USA
Distance from station: SE 79mi, 127km
Updated: Thu, 27-Feb-2020 5:15am PST

 
2020/02/27 13:15 KOKM 271315Z AUTO RMK AO2 PWINO PNO TSNO
KPNC - Ponca City, Oklahoma, USA
Distance from station: N 22mi, 36km
Updated: Thu, 27-Feb-2020 4:53am PST
Clear
Clear
 Wind from S
Wind: S 3 mph , 6 km/h
Temperature: 27°F , -3°C
Dew Point: 18°F , -8°C
Humidity: 69%
Barometer: 30.25 inHg , 1024.4 hPa
Clouds: Clear
Visibility: 10 miles , 16 km
2020/02/27 12:53 KPNC 271253Z AUTO 17003KT 10SM CLR M03/M08 A3025 RMK AO2 SLP250 T10281078
 
KSNL - Shawnee, Oklahoma, USA
Distance from station: S 74mi, 119km
Updated: Thu, 27-Feb-2020 5:15am PST
Clear
Clear
 Wind from SSW
Wind: SSW 8 mph , 13 km/h
Temperature: 27°F , -3°C
Wind Chill: 19°F , -7°C
Dew Point: 18°F , -8°C
Humidity: 69%
Barometer: 30.30 inHg , 1026.1 hPa
Clouds: Clear
Visibility: 10 miles , 16 km
2020/02/27 13:15 KSNL 271315Z AUTO 21007KT 10SM CLR M03/M08 A3030 RMK AO2 T10351079
KSWO - Stillwater, Oklahoma, USA
Distance from station: S 17mi, 28km
Updated: Thu, 27-Feb-2020 4:53am PST
Clear
Clear
 Wind from SSW
Wind: SSW 6 mph , 9 km/h
Temperature: 25°F , -4°C
Wind Chill: 18°F , -8°C
Dew Point: 18°F , -8°C
Humidity: 74%
Barometer: 30.27 inHg , 1025.1 hPa
Clouds: Clear
Visibility: 10 miles , 16 km
2020/02/27 12:53 KSWO 271253Z AUTO 20005KT 10SM CLR M04/M08 A3027 RMK AO2 SLP257 T10391083 $
 
KTIK - Tinker Afb, Oklahoma, USA
Distance from station: SSW 72mi, 115km
Updated: Thu, 27-Feb-2020 4:56am PST
Clear
Clear
 Wind from SSW
Wind: SSW 10 mph , 17 km/h
Temperature: 25°F , -4°C
Wind Chill: 15°F , -9°C
Dew Point: 18°F , -8°C
Humidity: 74%
Barometer: 30.28 inHg , 1025.4 hPa
Clouds: Clear
Visibility: 10 miles , 16 km
2020/02/27 12:56 KTIK 271256Z AUTO 20009KT 10SM CLR M04/M08 A3028 RMK AO2 SLP274 T10401081 $
KTUL - Tulsa, Oklahoma, USA
Distance from station: ESE 65mi, 105km
Updated: Thu, 27-Feb-2020 4:53am PST
Few Clouds
Few Clouds
 Wind from S
Wind: S 8 mph , 13 km/h
Temperature: 27°F , -3°C
Wind Chill: 19°F , -7°C
Dew Point: 18°F , -8°C
Humidity: 69%
Barometer: 30.28 inHg , 1025.4 hPa
Clouds: Few Clouds
Visibility: 10 miles , 16 km
Cloud details: Few Clouds 8500 ft
2020/02/27 12:53 KTUL 271253Z 18007KT 10SM FEW085 M03/M08 A3028 RMK AO2 SLP260 T10331078 $

Metar display script from Saratoga-Weather.org